Time;durP1;ratioP1;P1;durP2;ratioP2;P2;SDS_P1;SDS_P2;PMS_P1;PMS_P2;Temp;Humidity;BMP_temperature;BMP_pressure;BME280_temperature;BME280_humidity;BME280_pressure;Samples;Min_cycle;Max_cycle;Signal;HPM_P1;HPM_P2
2021/03/10 00:03:13;;;;;;;0.50;0.50;;;9.80;99.90;;;;;;20614955;28;725394;-73
2021/03/10 00:13:16;;;;;;;0.73;0.73;;;9.80;99.90;;;;;;20616900;28;20627;-72
2021/03/10 00:23:19;;;;;;;9.23;2.73;;;9.70;99.90;;;;;;20616518;28;20223;-74
2021/03/10 00:33:22;;;;;;;4.53;2.77;;;9.20;99.90;;;;;;20616727;28;20553;-73
2021/03/10 00:43:25;;;;;;;1.03;0.93;;;8.80;99.90;;;;;;20614108;28;20215;-73
2021/03/10 00:53:29;;;;;;;12.20;2.37;;;8.70;99.90;;;;;;20613701;28;20466;-73
2021/03/10 01:03:32;;;;;;;3.43;2.33;;;8.80;99.90;;;;;;20613909;28;20569;-72
2021/03/10 01:13:35;;;;;;;6.20;1.63;;;9.10;99.90;;;;;;20630466;28;20318;-74
2021/03/10 01:23:38;;;;;;;2.30;1.90;;;9.00;99.90;;;;;;20611928;28;20227;-73
2021/03/10 01:33:41;;;;;;;0.80;0.73;;;9.60;99.90;;;;;;20611374;28;20560;-73
2021/03/10 01:43:47;;;;;;;0.93;0.87;;;9.20;99.90;;;;;;20612657;28;20219;-72
2021/03/10 01:53:52;;;;;;;1.37;0.87;;;9.30;99.90;;;;;;20614660;28;20645;-73
2021/03/10 02:03:56;;;;;;;1.47;0.70;;;9.50;99.90;;;;;;20629848;23;20247;-76
2021/03/10 02:14:17;;;;;;;2.40;1.13;;;9.50;99.90;;;;;;20611126;28;20202;-76
2021/03/10 02:24:34;;;;;;;6.03;1.23;;;9.50;99.90;;;;;;20609896;28;20226;-75
2021/03/10 02:34:39;;;;;;;4.50;1.20;;;9.40;99.90;;;;;;20613190;28;20553;-84
2021/03/10 02:44:42;;;;;;;0.90;0.90;;;9.20;99.90;;;;;;20624050;28;20231;-84
2021/03/10 02:54:47;;;;;;;1.20;1.10;;;9.30;99.90;;;;;;20624903;28;20223;-84
2021/03/10 03:04:49;;;;;;;0.27;0.23;;;9.40;99.90;;;;;;20624142;28;20253;-84
2021/03/10 03:14:56;;;;;;;1.40;1.30;;;9.20;99.90;;;;;;20625024;28;20741;-84
2021/03/10 03:25:00;;;;;;;1.27;1.17;;;9.00;99.90;;;;;;20622297;28;20216;-89
2021/03/10 03:35:04;;;;;;;0.83;0.80;;;9.10;99.90;;;;;;20632085;28;20218;-89
2021/03/10 03:45:19;;;;;;;1.30;0.70;;;9.00;99.90;;;;;;20630648;28;20241;-89
2021/03/10 03:55:23;;;;;;;0.70;0.70;;;8.90;99.90;;;;;;20644942;28;20223;-88
2021/03/10 04:05:26;;;;;;;0.90;0.80;;;8.80;99.90;;;;;;20652000;28;20773;-90
2021/03/10 04:15:45;;;;;;;2.30;1.30;;;8.80;99.90;;;;;;20637825;28;20218;-88
2021/03/10 04:25:48;;;;;;;1.30;0.97;;;8.80;99.90;;;;;;20675393;28;20747;-88
2021/03/10 04:35:51;;;;;;;2.27;1.63;;;8.60;99.90;;;;;;20624152;28;20266;-88
2021/03/10 04:46:03;;;;;;;1.60;1.50;;;8.60;99.90;;;;;;20627442;28;20244;-81
2021/03/10 04:56:07;;;;;;;0.20;0.20;;;8.50;99.90;;;;;;20614221;28;20670;-82
2021/03/10 05:06:09;;;;;;;2.20;2.03;;;8.50;99.90;;;;;;20612888;28;20233;-80
2021/03/10 05:16:29;;;;;;;1.07;0.97;;;8.50;99.90;;;;;;20612036;28;20257;-79
2021/03/10 05:26:32;;;;;;;0.83;0.83;;;8.50;99.90;;;;;;20610494;28;20636;-77
2021/03/10 05:36:37;;;;;;;2.10;1.67;;;8.50;99.90;;;;;;20611596;28;20278;-77
2021/03/10 05:46:55;;;;;;;1.03;0.87;;;8.40;99.90;;;;;;20611294;28;20227;-78
2021/03/10 05:57:01;;;;;;;0.53;0.53;;;8.20;99.90;;;;;;20613572;28;20271;-86
2021/03/10 06:07:04;;;;;;;1.07;0.97;;;8.20;99.90;;;;;;20611956;28;20227;-92
2021/03/10 06:17:13;;;;;;;0.80;0.80;;;8.20;99.90;;;;;;20661216;28;20191;-87
2021/03/10 06:27:23;;;;;;;0.80;0.80;;;8.20;99.90;;;;;;20666689;28;20249;-84
2021/03/10 06:37:30;;;;;;;1.10;0.57;;;8.20;99.90;;;;;;20628603;28;20611;-84
2021/03/10 06:47:38;;;;;;;0.40;0.40;;;8.30;99.90;;;;;;20652542;28;20231;-84
2021/03/10 06:57:44;;;;;;;1.27;1.17;;;8.50;99.90;;;;;;20632781;28;20796;-75
2021/03/10 07:07:48;;;;;;;1.80;1.00;;;8.60;99.90;;;;;;20618867;28;20228;-77
2021/03/10 07:17:59;;;;;;;18.80;1.40;;;8.90;99.90;;;;;;20626470;28;20630;-82
2021/03/10 07:28:06;;;;;;;4.07;1.93;;;9.00;99.90;;;;;;20626040;28;20283;-85
2021/03/10 07:38:09;;;;;;;2.47;1.67;;;9.20;99.90;;;;;;20627810;28;20196;-80
2021/03/10 07:48:30;;;;;;;2.40;1.10;;;9.40;99.90;;;;;;20626409;28;20822;-77
2021/03/10 07:58:33;;;;;;;4.13;1.80;;;9.60;99.90;;;;;;20622012;28;20666;-82
2021/03/10 08:08:38;;;;;;;3.77;1.67;;;10.00;99.90;;;;;;20625697;28;20235;-78
2021/03/10 08:18:47;;;;;;;0.60;0.60;;;10.40;99.90;;;;;;20640288;28;20213;-84
2021/03/10 08:28:50;;;;;;;0.20;0.20;;;10.60;99.90;;;;;;20661190;28;20237;-75
2021/03/10 08:38:53;;;;;;;4.53;2.10;;;11.00;99.90;;;;;;20708581;28;20270;-83
2021/03/10 08:49:01;;;;;;;3.70;1.87;;;11.30;99.90;;;;;;20698411;28;20233;-84
2021/03/10 08:59:07;;;;;;;1.77;1.47;;;11.80;99.90;;;;;;20694697;28;20200;-81
2021/03/10 09:09:12;;;;;;;1.30;1.20;;;12.00;99.90;;;;;;20614511;28;20235;-87
2021/03/10 09:19:32;;;;;;;1.13;1.03;;;12.20;99.90;;;;;;20603815;28;20199;-83
2021/03/10 09:29:42;;;;;;;1.73;1.63;;;12.60;99.90;;;;;;20618207;28;20228;-83
2021/03/10 09:39:49;;;;;;;1.13;1.03;;;13.20;99.90;;;;;;20621046;28;20312;-81
2021/03/10 10:00:45;;;;;;;0.67;0.67;;;14.10;99.90;;;;;;20624136;23;20728;-78
2021/03/10 10:10:48;;;;;;;1.70;1.60;;;14.20;99.90;;;;;;20613698;28;20219;-87
2021/03/10 10:20:52;;;;;;;1.30;1.20;;;14.20;99.90;;;;;;20592939;28;20525;-76
2021/03/10 10:30:57;;;;;;;2.43;1.83;;;14.50;99.90;;;;;;20607720;28;20242;-79
2021/03/10 10:41:01;;;;;;;1.50;1.40;;;15.30;99.90;;;;;;20609474;28;20191;-83
2021/03/10 10:51:04;;;;;;;1.87;1.33;;;15.60;99.90;;;;;;20590382;28;20281;-75
2021/03/10 11:01:08;;;;;;;3.00;2.33;;;16.20;99.90;;;;;;20620812;28;20657;-81
2021/03/10 11:11:11;;;;;;;4.50;1.43;;;17.10;99.90;;;;;;20616104;28;20233;-83
2021/03/10 11:21:16;;;;;;;3.10;1.70;;;17.30;99.90;;;;;;20610272;28;20354;-82
2021/03/10 11:31:24;;;;;;;2.03;1.83;;;17.70;99.90;;;;;;20586558;28;20227;-77
2021/03/10 11:41:28;;;;;;;4.00;2.20;;;18.00;99.90;;;;;;20543963;28;20311;-80
2021/03/10 11:51:33;;;;;;;8.70;2.37;;;18.40;99.90;;;;;;20537219;28;20251;-76
2021/03/10 12:01:36;;;;;;;6.43;3.53;;;18.80;99.90;;;;;;20610105;28;20211;-78
2021/03/10 12:11:39;;;;;;;4.37;2.57;;;18.90;99.90;;;;;;20613472;28;20227;-76
2021/03/10 12:21:57;;;;;;;4.60;2.70;;;19.60;99.90;;;;;;20585270;28;20529;-76
2021/03/10 12:32:00;;;;;;;3.60;2.47;;;19.70;99.90;;;;;;20573939;28;20236;-75
2021/03/10 12:42:03;;;;;;;3.07;2.67;;;19.70;99.90;;;;;;20554403;28;20671;-75
2021/03/10 12:52:18;;;;;;;6.33;2.43;;;19.80;99.90;;;;;;20606498;28;20231;-76
2021/03/10 13:02:21;;;;;;;3.73;3.00;;;20.30;99.90;;;;;;20611552;28;20203;-74
2021/03/10 13:12:24;;;;;;;5.03;2.83;;;20.30;99.90;;;;;;20614203;28;20227;-73
2021/03/10 13:22:41;;;;;;;5.33;3.10;;;19.90;99.90;;;;;;20609672;28;20704;-73
2021/03/10 13:32:43;;;;;;;5.63;3.40;;;21.00;99.90;;;;;;20599660;28;20227;-75
2021/03/10 13:42:47;;;;;;;4.20;2.57;;;20.70;99.90;;;;;;20608840;28;20695;-75
2021/03/10 13:53:04;;;;;;;2.27;1.63;;;21.20;99.90;;;;;;20611473;28;21117;-73
2021/03/10 14:03:08;;;;;;;3.00;1.90;;;21.30;99.90;;;;;;20608738;28;20286;-72
2021/03/10 14:13:11;;;;;;;4.10;2.47;;;22.10;99.90;;;;;;20608455;28;20305;-76
2021/03/10 14:23:29;;;;;;;1.87;0.90;;;21.80;99.90;;;;;;20608178;28;20203;-72
2021/03/10 14:33:34;;;;;;;1.23;1.13;;;22.60;99.90;;;;;;20614874;28;20317;-75
2021/03/10 14:43:40;;;;;;;1.70;1.30;;;22.90;99.90;;;;;;20624417;28;20541;-72
2021/03/10 14:53:51;;;;;;;2.73;2.23;;;22.40;99.90;;;;;;20624119;28;20513;-73
2021/03/10 15:03:55;;;;;;;6.30;4.03;;;22.10;99.90;;;;;;20621544;28;20192;-73
2021/03/10 15:13:58;;;;;;;7.23;2.97;;;22.10;99.90;;;;;;20620673;28;20270;-76
2021/03/10 15:24:15;;;;;;;2.73;2.07;;;22.50;99.90;;;;;;20618400;28;20614;-72
2021/03/10 15:34:17;;;;;;;3.30;2.30;;;21.90;99.90;;;;;;20619058;28;20617;-76
2021/03/10 15:44:21;;;;;;;3.10;2.17;;;20.90;99.90;;;;;;20615868;28;20211;-75
2021/03/10 15:54:40;;;;;;;3.40;1.80;;;20.40;99.90;;;;;;20615956;28;20728;-73
2021/03/10 16:04:51;;;;;;;2.73;1.80;;;19.90;99.90;;;;;;20616276;28;20220;-76
2021/03/10 16:14:54;;;;;;;2.07;1.63;;;20.30;99.90;;;;;;20614920;28;20211;-73
2021/03/10 16:25:06;;;;;;;1.80;1.00;;;20.20;99.90;;;;;;20613881;28;20227;-75
2021/03/10 16:35:09;;;;;;;2.43;1.60;;;18.20;99.90;;;;;;20614137;28;20560;-74
2021/03/10 16:45:14;;;;;;;5.60;1.87;;;17.20;99.90;;;;;;20610674;28;20277;-75
2021/03/10 16:55:27;;;;;;;5.57;2.33;;;16.80;99.90;;;;;;20605819;28;20227;-75
2021/03/10 17:05:30;;;;;;;0.93;0.93;;;16.70;99.90;;;;;;20611269;28;20960;-76
2021/03/10 17:15:33;;;;;;;0.93;0.90;;;16.40;99.90;;;;;;20608330;28;20671;-76
2021/03/10 17:25:47;;;;;;;0.37;0.37;;;14.90;99.90;;;;;;20607804;28;20222;-72
2021/03/10 17:35:50;;;;;;;0.70;0.70;;;14.80;99.90;;;;;;20607778;28;20202;-75
2021/03/10 17:45:53;;;;;;;1.07;0.80;;;14.20;99.90;;;;;;20608801;28;20223;-74
2021/03/10 17:55:59;;;;;;;2.63;0.73;;;13.70;99.90;;;;;;20611609;28;20498;-74
2021/03/10 18:06:03;;;;;;;4.00;1.63;;;13.50;99.90;;;;;;20616316;28;20723;-72
2021/03/10 18:16:06;;;;;;;2.10;1.20;;;13.50;99.90;;;;;;20625264;28;20306;-72
2021/03/10 18:26:10;;;;;;;2.83;1.13;;;13.30;99.90;;;;;;20623913;28;20250;-73
2021/03/10 18:36:12;;;;;;;1.10;1.10;;;13.20;99.90;;;;;;20572316;28;20683;-74
2021/03/10 18:46:18;;;;;;;2.43;1.80;;;13.20;99.90;;;;;;20610351;28;20230;-75
2021/03/10 18:56:22;;;;;;;1.17;0.87;;;12.80;99.90;;;;;;20620160;28;20237;-73
2021/03/10 19:06:25;;;;;;;1.23;1.10;;;12.20;99.90;;;;;;20609635;28;20731;-74
2021/03/10 19:16:28;;;;;;;1.70;1.57;;;11.70;99.90;;;;;;20585299;28;20458;-74
2021/03/10 19:26:36;;;;;;;3.43;1.83;;;11.50;99.90;;;;;;20618002;28;20692;-76
2021/03/10 19:36:40;;;;;;;1.87;1.13;;;11.30;99.90;;;;;;20616446;28;20196;-75
2021/03/10 19:46:43;;;;;;;10.90;1.70;;;11.10;99.90;;;;;;20617509;28;20224;-75
2021/03/10 19:56:46;;;;;;;8.70;1.43;;;11.70;99.90;;;;;;20616697;28;20259;-75
2021/03/10 20:06:51;;;;;;;1.50;0.73;;;11.70;99.90;;;;;;20614682;28;20354;-75
2021/03/10 20:16:54;;;;;;;1.77;1.47;;;11.50;99.90;;;;;;20615151;28;20366;-77
2021/03/10 20:26:58;;;;;;;3.80;1.90;;;11.90;99.90;;;;;;20615614;28;20672;-75
2021/03/10 20:37:01;;;;;;;1.63;1.53;;;11.90;99.90;;;;;;20617427;28;20698;-76
2021/03/10 20:47:05;;;;;;;1.27;1.13;;;12.00;99.90;;;;;;20614888;28;20223;-76
2021/03/10 20:57:08;;;;;;;0.93;0.67;;;11.80;99.90;;;;;;20617290;28;20231;-74
2021/03/10 21:07:12;;;;;;;1.87;1.30;;;11.60;99.90;;;;;;20614609;28;20232;-76
2021/03/10 21:17:15;;;;;;;1.53;1.03;;;11.40;99.90;;;;;;20617220;28;20446;-76
2021/03/10 21:27:20;;;;;;;0.83;0.77;;;11.40;99.90;;;;;;20613895;28;20227;-77
2021/03/10 21:37:23;;;;;;;1.93;1.07;;;11.50;99.90;;;;;;20610970;28;20905;-77
2021/03/10 21:47:27;;;;;;;2.20;1.07;;;11.10;99.90;;;;;;20612229;28;20227;-74
2021/03/10 21:57:29;;;;;;;1.50;1.20;;;11.00;99.90;;;;;;20612947;28;20228;-74
2021/03/10 22:07:33;;;;;;;0.53;0.53;;;10.70;99.90;;;;;;20611023;28;20227;-73
2021/03/10 22:17:36;;;;;;;2.60;1.53;;;10.30;99.90;;;;;;20613275;28;21078;-75
2021/03/10 22:27:39;;;;;;;0.93;0.87;;;9.50;99.90;;;;;;20610826;28;20219;-75
2021/03/10 22:37:42;;;;;;;1.00;0.90;;;8.80;99.90;;;;;;20610795;28;20564;-72
2021/03/10 22:47:45;;;;;;;0.67;0.67;;;9.00;99.90;;;;;;20609108;28;20832;-75
2021/03/10 22:57:48;;;;;;;1.23;1.17;;;9.00;99.90;;;;;;20618318;28;20562;-71
2021/03/10 23:07:52;;;;;;;1.77;1.67;;;9.20;99.90;;;;;;20622993;28;20227;-74
2021/03/10 23:17:55;;;;;;;2.43;1.27;;;9.50;99.90;;;;;;20625359;28;21073;-73
2021/03/10 23:27:58;;;;;;;2.07;1.53;;;9.50;99.90;;;;;;20624503;28;20215;-74
2021/03/10 23:38:01;;;;;;;2.57;1.50;;;9.30;99.90;;;;;;20620352;28;20621;-76
2021/03/10 23:48:09;;;;;;;1.07;1.03;;;9.10;99.90;;;;;;20634801;28;20530;-75
2021/03/10 23:58:12;;;;;;;2.83;1.23;;;9.00;99.90;;;;;;20619722;28;20247;-77
